Time;durP1;ratioP1;P1;durP2;ratioP2;P2;SDS_P1;SDS_P2;PMS_P1;PMS_P2;Temp;Humidity;BMP_temperature;BMP_pressure;BME280_temperature;BME280_humidity;BME280_pressure;Samples;Min_cycle;Max_cycle;Signal;HPM_P1;HPM_P2
2023/01/24 00:00:25;;;;;;;11.70;5.70;;;;;;;7.75;82.26;102306.36;107763;1290;23734;-63
2023/01/24 00:02:50;;;;;;;13.90;6.30;;;;;;;7.77;81.90;102308.16;107941;1290;22028;-61
2023/01/24 00:05:17;;;;;;;11.60;6.20;;;;;;;7.77;81.37;102311.30;107836;1290;21989;-62
2023/01/24 00:07:43;;;;;;;10.40;6.80;;;;;;;7.74;81.41;102311.05;107786;1290;21994;-69
2023/01/24 00:10:10;;;;;;;9.70;5.70;;;;;;;7.74;81.53;102310.34;107805;1283;21994;-61
2023/01/24 00:12:36;;;;;;;15.90;6.80;;;;;;;7.75;81.68;102313.35;107821;1290;22000;-61
2023/01/24 00:15:02;;;;;;;11.40;6.30;;;;;;;7.73;81.51;102312.59;107910;1290;21992;-69
2023/01/24 00:17:28;;;;;;;11.30;6.90;;;;;;;7.69;81.02;102314.40;107939;1290;22183;-61
2023/01/24 00:19:57;;;;;;;13.00;6.70;;;;;;;7.67;80.65;102315.36;107814;1290;22053;-61
2023/01/24 00:22:22;;;;;;;12.90;6.70;;;;;;;7.64;80.68;102313.71;107628;1286;21998;-69
2023/01/24 00:24:48;;;;;;;13.90;7.30;;;;;;;7.63;81.09;102310.70;107698;1291;21992;-61
2023/01/24 00:27:15;;;;;;;13.30;6.10;;;;;;;7.65;81.23;102308.67;107798;1291;22030;-62
2023/01/24 00:29:41;;;;;;;12.70;6.30;;;;;;;7.66;81.06;102303.81;107950;1291;21991;-62
2023/01/24 00:32:06;;;;;;;10.00;5.70;;;;;;;7.65;80.99;102300.11;107756;1280;21990;-68
2023/01/24 00:34:32;;;;;;;12.30;7.00;;;;;;;7.66;80.41;102296.83;107749;1286;22004;-69
2023/01/24 00:36:58;;;;;;;14.60;7.60;;;;;;;7.65;80.27;102294.34;107882;1291;23641;-70
2023/01/24 00:39:24;;;;;;;14.60;8.30;;;;;;;7.62;80.52;102294.62;107840;1291;22263;-69
2023/01/24 00:41:49;;;;;;;13.50;6.40;;;;;;;7.60;80.20;102295.06;107910;1290;21987;-63
2023/01/24 00:44:15;;;;;;;14.50;7.80;;;;;;;7.59;80.18;102294.71;107937;1282;21995;-69
2023/01/24 00:46:42;;;;;;;18.00;7.10;;;;;;;7.59;79.88;102295.75;107908;1290;21989;-70
2023/01/24 00:49:07;;;;;;;10.80;6.10;;;;;;;7.58;79.57;102297.10;107862;1290;21993;-61
2023/01/24 00:51:36;;;;;;;12.50;6.20;;;;;;;7.55;79.13;102299.98;107641;1290;22455;-61
2023/01/24 00:54:02;;;;;;;13.70;6.90;;;;;;;7.55;79.25;102301.38;107620;1291;22205;-61
2023/01/24 00:56:28;;;;;;;13.70;7.80;;;;;;;7.56;79.40;102302.45;107597;1291;23748;-69
2023/01/24 00:58:54;;;;;;;14.40;7.20;;;;;;;7.54;79.46;102302.94;107670;1290;22015;-61
2023/01/24 01:01:19;;;;;;;12.10;7.10;;;;;;;7.48;79.59;102306.23;107784;1290;21986;-61
2023/01/24 07:13:24;;;;;;;36.30;18.80;;;;;;;2.04;100.00;102407.75;108055;1281;549705;-61
2023/01/24 07:15:50;;;;;;;41.10;19.80;;;;;;;4.90;100.00;102391.47;108369;1280;21980;-69
2023/01/24 07:18:17;;;;;;;42.90;20.60;;;;;;;5.34;99.67;102391.92;108151;1284;21983;-60
2023/01/24 07:20:43;;;;;;;43.00;20.90;;;;;;;5.56;97.89;102389.69;108217;1284;22070;-62
2023/01/24 07:23:18;;;;;;;35.50;17.70;;;;;;;5.72;95.84;102385.80;108167;1285;22022;-69
2023/01/24 07:25:45;;;;;;;30.60;16.50;;;;;;;5.86;94.01;102389.30;107978;1282;312974;-61
2023/01/24 07:28:38;;;;;;;25.70;15.30;;;;;;;5.94;92.86;102388.42;108446;1279;22017;-70
2023/01/24 07:31:03;;;;;;;27.20;14.30;;;;;;;6.05;92.53;102389.02;108311;1281;23040;-61
2023/01/24 07:33:29;;;;;;;23.00;13.50;;;;;;;6.14;91.82;102390.11;108473;1281;22030;-69
2023/01/24 07:35:56;;;;;;;26.50;14.10;;;;;;;6.18;90.47;102388.50;108399;1281;22017;-61
2023/01/24 07:38:21;;;;;;;20.90;11.80;;;;;;;6.21;90.23;102387.05;108430;1276;23525;-61
2023/01/24 07:40:47;;;;;;;23.20;12.40;;;;;;;6.26;89.88;102384.80;108434;1281;21981;-62
2023/01/24 07:43:20;;;;;;;;;;;;;;;6.32;89.39;102383.26;108380;1282;21962;-61
2023/01/24 07:45:46;;;;;;;22.30;13.30;;;;;;;6.36;88.86;102382.55;108515;1269;23768;-70
2023/01/24 07:48:12;;;;;;;30.50;14.60;;;;;;;6.35;87.43;102383.04;108378;1282;21989;-70
2023/01/24 07:50:40;;;;;;;23.30;12.50;;;;;;;6.32;86.50;102386.42;108464;1282;21997;-61
2023/01/24 07:53:06;;;;;;;26.70;13.80;;;;;;;6.31;86.60;102390.39;108425;1281;21993;-61
2023/01/24 07:55:32;;;;;;;24.80;14.70;;;;;;;6.41;87.32;102386.55;108420;1281;22006;-69
2023/01/24 07:57:59;;;;;;;21.20;14.30;;;;;;;6.47;87.02;102383.84;108456;1281;23146;-61
2023/01/24 08:00:25;;;;;;;24.90;14.10;;;;;;;6.50;86.46;102388.12;108455;1281;22018;-69
2023/01/24 08:02:51;;;;;;;25.80;14.60;;;;;;;6.52;85.81;102382.29;108437;1281;22040;-61
2023/01/24 08:05:17;;;;;;;24.80;13.30;;;;;;;6.52;85.37;102380.88;108423;1281;21986;-69
2023/01/24 08:07:43;;;;;;;23.30;13.90;;;;;;;6.53;85.28;102376.90;108479;1281;21991;-70
2023/01/24 08:10:10;;;;;;;29.60;16.10;;;;;;;6.53;85.04;102376.38;108393;1281;21981;-70
2023/01/24 08:12:36;;;;;;;29.10;17.70;;;;;;;6.52;84.53;102376.84;108427;1282;21979;-69
2023/01/24 08:15:03;;;;;;;25.80;13.60;;;;;;;6.49;84.20;102376.23;108402;1282;22015;-61
2023/01/24 08:17:35;;;;;;;24.70;13.50;;;;;;;6.50;84.02;102380.77;108443;1281;23049;-62
2023/01/24 08:20:02;;;;;;;23.20;13.40;;;;;;;6.50;83.54;102381.33;108412;1282;21980;-62
2023/01/24 08:22:29;;;;;;;21.70;13.20;;;;;;;6.50;83.46;102380.60;108353;1282;21989;-71
2023/01/24 08:24:56;;;;;;;21.60;12.40;;;;;;;6.48;83.40;102385.42;108330;1282;22000;-71
2023/01/24 08:27:22;;;;;;;25.20;12.30;;;;;;;6.40;83.88;102384.60;108260;1282;21995;-61
2023/01/24 08:29:48;;;;;;;23.40;14.00;;;;;;;6.46;83.04;102386.75;108351;1279;21994;-69
2023/01/24 08:32:15;;;;;;;23.30;13.80;;;;;;;6.46;82.67;102382.02;108327;1282;21999;-70
2023/01/24 08:34:41;;;;;;;22.20;12.70;;;;;;;6.48;83.36;102385.24;108345;1282;21981;-70
2023/01/24 08:37:07;;;;;;;23.30;13.50;;;;;;;6.52;84.04;102384.86;108300;1283;23703;-70
2023/01/24 08:39:32;;;;;;;22.70;13.40;;;;;;;6.55;83.51;102384.83;108235;1283;23060;-69
2023/01/24 08:41:58;;;;;;;20.90;12.30;;;;;;;6.61;83.44;102383.80;108201;1282;21996;-69
2023/01/24 08:44:26;;;;;;;21.90;12.40;;;;;;;6.65;83.06;102383.78;108363;1282;22030;-69
2023/01/24 08:46:52;;;;;;;20.40;11.30;;;;;;;6.69;83.21;102382.88;108374;1282;24310;-69
2023/01/24 08:49:17;;;;;;;20.10;11.10;;;;;;;6.73;83.33;102380.39;108334;1282;21988;-69
2023/01/24 08:51:43;;;;;;;21.20;11.90;;;;;;;6.78;83.09;102379.36;108399;1282;21989;-70
2023/01/24 08:54:09;;;;;;;19.10;11.10;;;;;;;6.79;82.39;102383.22;108257;1282;23729;-69
2023/01/24 08:56:36;;;;;;;21.80;12.30;;;;;;;6.79;82.58;102380.42;108419;1282;21994;-69
2023/01/24 08:59:01;;;;;;;25.70;11.70;;;;;;;6.81;82.52;102377.71;108351;1282;23830;-70
2023/01/24 09:01:28;;;;;;;19.60;11.50;;;;;;;6.84;82.03;102377.11;108339;1282;21978;-70
2023/01/24 09:03:56;;;;;;;19.60;10.50;;;;;;;6.83;81.52;102373.76;108395;1282;22025;-62
2023/01/24 09:06:22;;;;;;;20.30;11.30;;;;;;;6.81;81.54;102374.23;108393;1282;22002;-62
2023/01/24 09:08:48;;;;;;;25.30;13.20;;;;;;;6.79;81.04;102372.94;108345;1276;21981;-70
2023/01/24 09:11:13;;;;;;;22.20;12.10;;;;;;;6.76;80.68;102371.61;108245;1282;21992;-62
2023/01/24 09:13:40;;;;;;;26.00;14.00;;;;;;;6.86;80.51;102370.54;108373;1282;21990;-70
2023/01/24 09:16:06;;;;;;;21.60;11.60;;;;;;;6.98;81.95;102365.37;108341;1282;21979;-61
2023/01/24 09:18:32;;;;;;;18.40;10.90;;;;;;;7.05;81.40;102363.20;108325;1282;21993;-63
2023/01/24 09:21:02;;;;;;;24.40;12.50;;;;;;;7.09;81.07;102363.65;108371;1270;21985;-70
2023/01/24 09:23:28;;;;;;;22.30;11.60;;;;;;;7.12;80.77;102361.48;108281;1282;22016;-62
2023/01/24 09:25:54;;;;;;;20.10;11.60;;;;;;;7.10;79.99;102359.50;108282;1282;23649;-61
2023/01/24 09:28:21;;;;;;;20.50;11.90;;;;;;;7.10;80.09;102359.84;108252;1282;21982;-61
2023/01/24 09:30:49;;;;;;;22.00;10.90;;;;;;;7.10;80.43;102352.86;108227;1280;22024;-61
2023/01/24 09:33:15;;;;;;;23.70;12.40;;;;;;;7.10;80.44;102353.21;108280;1282;21993;-69
2023/01/24 09:35:41;;;;;;;18.40;10.60;;;;;;;7.09;80.68;102350.21;108251;1281;22029;-61
2023/01/24 09:38:07;;;;;;;21.80;11.50;;;;;;;7.07;80.14;102347.20;107506;1282;1002877;-63
2023/01/24 09:40:44;;;;;;;19.00;11.70;;;;;;;7.07;80.08;102345.97;108332;1282;21986;-70
2023/01/24 09:43:32;;;;;;;18.50;11.30;;;;;;;7.09;80.01;102345.84;108302;1270;22020;-61
2023/01/24 09:46:25;;;;;;;20.70;11.60;;;;;;;7.07;79.69;102344.90;108220;1282;23593;-70
2023/01/24 09:49:18;;;;;;;20.20;11.20;;;;;;;7.03;80.09;102344.95;108319;1281;21995;-71
2023/01/24 09:51:51;;;;;;;18.70;11.50;;;;;;;7.15;81.92;102342.55;108351;1282;21969;-61
2023/01/24 09:54:31;;;;;;;21.30;11.20;;;;;;;7.20;80.99;102343.61;108387;1282;23054;-72
2023/01/24 09:56:57;;;;;;;18.50;10.20;;;;;;;7.22;80.53;102337.89;108329;1282;23608;-61
2023/01/24 09:59:26;;;;;;;20.10;10.90;;;;;;;7.21;80.21;102340.48;108309;1277;21981;-71
2023/01/24 10:01:53;;;;;;;20.60;10.40;;;;;;;7.19;79.95;102339.71;108286;1280;21987;-71
2023/01/24 10:04:34;;;;;;;18.20;10.40;;;;;;;7.19;79.90;102342.84;107534;1282;1002524;-71
2023/01/24 10:07:12;;;;;;;17.20;10.70;;;;;;;7.18;79.92;102341.61;108294;1282;21991;-61
2023/01/24 16:12:16;;;;;;;59.80;30.80;;;;;;;2.44;100.00;102308.67;107185;1280;1002240;-62
2023/01/24 16:14:50;;;;;;;58.00;30.00;;;;;;;5.57;100.00;102291.52;108115;1283;23063;-62
2023/01/24 16:17:41;;;;;;;55.20;33.30;;;;;;;5.99;100.00;102287.04;108083;1287;23940;-70
2023/01/24 16:20:26;;;;;;;56.90;31.30;;;;;;;6.29;100.00;102287.09;108080;1275;21990;-63
2023/01/24 16:22:53;;;;;;;60.10;31.90;;;;;;;6.51;99.88;102281.39;108247;1287;22003;-70
2023/01/24 16:25:20;;;;;;;58.90;34.60;;;;;;;6.64;98.81;102282.02;107839;1285;389873;-70
2023/01/24 16:27:46;;;;;;;54.20;33.90;;;;;;;6.77;97.85;102280.55;108095;1285;21984;-62
2023/01/24 16:30:20;;;;;;;49.50;29.70;;;;;;;6.86;97.77;102284.33;106600;1285;1003006;-70
2023/01/24 16:32:46;;;;;;;45.20;29.50;;;;;;;6.99;97.02;102283.02;108287;1285;21987;-70
2023/01/24 16:35:12;;;;;;;40.60;25.80;;;;;;;7.11;95.97;102286.89;108259;1285;22062;-62
2023/01/24 16:37:38;;;;;;;37.90;23.30;;;;;;;7.19;95.49;102283.16;108048;1285;21995;-61
2023/01/24 16:40:05;;;;;;;35.30;22.50;;;;;;;7.29;95.18;102279.10;108108;1285;21991;-61
2023/01/24 16:42:32;;;;;;;34.20;19.70;;;;;;;7.34;93.98;102279.61;108190;1282;22098;-62
2023/01/24 16:44:59;;;;;;;33.80;18.40;;;;;;;7.40;93.44;102281.54;108099;1277;21996;-62
2023/01/24 16:47:26;;;;;;;31.20;19.40;;;;;;;7.45;93.35;102282.40;108069;1285;23689;-62
2023/01/24 16:49:58;;;;;;;;;;;;;;;7.43;93.11;102282.86;108031;1285;21992;-70
2023/01/24 16:52:25;;;;;;;30.40;17.70;;;;;;;7.47;92.94;102285.25;108096;1285;21996;-70
2023/01/24 16:54:52;;;;;;;32.40;19.60;;;;;;;7.52;92.10;102281.90;108318;1272;21994;-62
2023/01/24 16:57:19;;;;;;;37.20;21.10;;;;;;;7.53;91.74;102282.11;107407;1284;1002395;-69
2023/01/24 16:59:48;;;;;;;33.90;20.80;;;;;;;7.53;90.95;102283.67;108110;1285;22029;-69
2023/01/24 17:02:14;;;;;;;32.40;19.80;;;;;;;7.52;90.36;102282.08;108037;1285;22091;-69
2023/01/24 17:04:40;;;;;;;38.70;22.20;;;;;;;7.54;90.85;102282.49;108128;1285;21985;-70
2023/01/24 17:07:06;;;;;;;37.90;22.40;;;;;;;7.57;91.09;102284.52;108006;1273;21984;-69
2023/01/24 17:09:34;;;;;;;34.90;20.30;;;;;;;7.61;90.33;102283.02;108196;1285;21986;-61
2023/01/24 17:12:00;;;;;;;32.70;18.20;;;;;;;7.57;89.25;102283.46;108280;1285;21987;-69
2023/01/24 17:14:33;;;;;;;31.00;18.50;;;;;;;7.55;89.23;102284.79;108094;1283;23697;-70
2023/01/24 17:17:00;;;;;;;28.00;17.90;;;;;;;7.56;88.99;102283.61;108052;1285;21987;-70
2023/01/24 17:19:25;;;;;;;31.10;20.30;;;;;;;7.59;88.56;102282.66;108014;1285;21983;-70
2023/01/24 17:21:57;;;;;;;28.10;18.10;;;;;;;7.59;88.19;102281.77;108018;1285;22048;-70
2023/01/24 17:24:23;;;;;;;35.70;22.40;;;;;;;7.58;87.44;102283.66;108177;1285;22001;-70
2023/01/24 17:26:50;;;;;;;41.30;27.40;;;;;;;7.58;87.39;102284.02;108060;1285;21992;-70
2023/01/24 17:29:17;;;;;;;35.20;21.10;;;;;;;7.59;87.33;102287.02;108044;1285;22022;-70
2023/01/24 17:31:44;;;;;;;34.20;19.30;;;;;;;7.61;87.21;102288.81;108080;1285;22007;-70
2023/01/24 17:34:10;;;;;;;33.90;19.60;;;;;;;7.64;87.46;102288.54;108255;1285;21992;-70
2023/01/24 17:36:38;;;;;;;30.50;17.90;;;;;;;7.64;87.64;102290.11;108216;1286;21993;-70
2023/01/24 17:39:06;;;;;;;30.20;18.60;;;;;;;7.64;87.41;102291.69;108120;1285;21999;-62
2023/01/24 17:41:34;;;;;;;38.60;17.70;;;;;;;7.63;87.51;102291.50;108368;1286;21991;-62
2023/01/24 17:44:04;;;;;;;33.80;18.30;;;;;;;7.65;87.60;102292.61;107564;1285;1003197;-61
2023/01/24 17:46:30;;;;;;;33.70;17.50;;;;;;;7.67;87.35;102291.09;108333;1285;21992;-70
2023/01/24 17:48:57;;;;;;;34.30;19.50;;;;;;;7.72;87.45;102292.12;108279;1285;23708;-61
2023/01/24 17:51:25;;;;;;;32.30;19.10;;;;;;;7.74;87.42;102293.56;108257;1282;21992;-61
2023/01/24 17:53:53;;;;;;;28.50;18.30;;;;;;;7.75;87.53;102293.62;108245;1272;21989;-61
2023/01/24 17:56:19;;;;;;;36.90;24.30;;;;;;;7.76;87.23;102292.77;108083;1285;21989;-70
2023/01/24 17:58:45;;;;;;;29.70;17.80;;;;;;;7.71;87.38;102292.98;108063;1279;22050;-61
2023/01/24 18:01:14;;;;;;;52.60;30.60;;;;;;;7.81;88.10;102291.35;108128;1285;22080;-71
2023/01/24 18:03:42;;;;;;;68.10;39.40;;;;;;;7.89;88.02;102296.48;108134;1281;22025;-61
2023/01/24 18:06:08;;;;;;;41.20;24.90;;;;;;;7.88;86.74;102299.08;108059;1280;22000;-70
2023/01/24 18:08:34;;;;;;;40.90;25.20;;;;;;;7.86;86.14;102298.15;108026;1285;21997;-61
2023/01/24 18:11:08;;;;;;;49.60;26.60;;;;;;;7.83;85.75;102295.77;108021;1285;22002;-70
2023/01/24 18:13:36;;;;;;;36.70;22.70;;;;;;;7.86;85.61;102297.77;108146;1285;21986;-70
2023/01/24 18:16:06;;;;;;;43.60;23.70;;;;;;;7.85;85.66;102296.19;107964;1285;21984;-61
2023/01/24 18:18:33;;;;;;;47.20;24.60;;;;;;;7.89;85.98;102290.34;108052;1273;21996;-61
2023/01/24 18:20:59;;;;;;;35.90;20.90;;;;;;;7.92;86.00;102284.83;107985;1285;21985;-61
2023/01/24 18:23:26;;;;;;;34.10;18.30;;;;;;;7.91;85.96;102288.15;108004;1285;21983;-61
2023/01/24 18:25:52;;;;;;;33.60;19.50;;;;;;;7.89;86.61;102289.14;108058;1285;24319;-70
2023/01/24 18:28:18;;;;;;;33.70;19.20;;;;;;;7.91;86.76;102287.27;107944;1284;21991;-61
2023/01/24 18:30:43;;;;;;;33.10;20.40;;;;;;;7.96;86.39;102289.48;108076;1285;21989;-70
2023/01/24 18:33:10;;;;;;;34.90;16.90;;;;;;;7.99;85.95;102291.49;108019;1285;21987;-62
2023/01/24 18:35:40;;;;;;;33.20;17.70;;;;;;;8.00;86.13;102290.68;108031;1285;21989;-61
2023/01/24 18:38:07;;;;;;;29.10;17.00;;;;;;;8.04;86.14;102287.64;108119;1285;21996;-70
2023/01/24 18:40:34;;;;;;;26.90;15.30;;;;;;;8.09;86.25;102289.54;108052;1285;22626;-70
2023/01/24 18:43:00;;;;;;;28.90;17.20;;;;;;;8.12;86.21;102291.55;108073;1284;21987;-61
2023/01/24 18:45:28;;;;;;;33.00;19.70;;;;;;;8.15;86.25;102295.66;108065;1273;21987;-61
2023/01/24 18:47:54;;;;;;;27.90;17.30;;;;;;;8.12;85.39;102294.50;108032;1285;21981;-61
2023/01/24 18:50:21;;;;;;;30.00;18.50;;;;;;;8.08;85.05;102294.55;107995;1285;22253;-70
2023/01/24 18:52:53;;;;;;;33.90;17.90;;;;;;;8.04;84.94;102296.39;108055;1274;21984;-61
2023/01/24 18:55:19;;;;;;;25.30;16.50;;;;;;;8.05;85.09;102297.98;108210;1285;21996;-70
2023/01/24 18:57:45;;;;;;;32.50;16.20;;;;;;;8.09;85.09;102299.65;108241;1285;21993;-62
2023/01/24 19:00:12;;;;;;;27.00;16.20;;;;;;;8.12;85.26;102298.01;108270;1277;21994;-61
2023/01/24 19:02:38;;;;;;;30.00;16.70;;;;;;;8.15;85.19;102295.83;108105;1282;21999;-61
